sensor_id;sensor_type;location;lat;lon;timestamp;P1;durP1;ratioP1;P2;durP2;ratioP2
1505;SDS011;744;51.436;7.356;2023-05-07T00:02:15;5.53;;;5.10;;
1505;SDS011;744;51.436;7.356;2023-05-07T00:04:42;5.73;;;5.30;;
1505;SDS011;744;51.436;7.356;2023-05-07T00:07:10;4.77;;;4.37;;
1505;SDS011;744;51.436;7.356;2023-05-07T00:09:37;5.57;;;5.07;;
1505;SDS011;744;51.436;7.356;2023-05-07T00:12:04;6.50;;;5.03;;
1505;SDS011;744;51.436;7.356;2023-05-07T00:14:30;4.80;;;4.30;;
1505;SDS011;744;51.436;7.356;2023-05-07T00:16:57;4.53;;;4.07;;
1505;SDS011;744;51.436;7.356;2023-05-07T00:19:24;5.50;;;4.60;;
1505;SDS011;744;51.436;7.356;2023-05-07T00:21:51;4.30;;;3.90;;
1505;SDS011;744;51.436;7.356;2023-05-07T00:24:19;6.00;;;5.40;;
1505;SDS011;744;51.436;7.356;2023-05-07T00:26:46;5.10;;;4.70;;
1505;SDS011;744;51.436;7.356;2023-05-07T00:29:13;6.73;;;5.40;;
1505;SDS011;744;51.436;7.356;2023-05-07T00:31:40;6.20;;;5.60;;
1505;SDS011;744;51.436;7.356;2023-05-07T00:34:07;6.23;;;4.50;;
1505;SDS011;744;51.436;7.356;2023-05-07T00:36:34;4.17;;;3.87;;
1505;SDS011;744;51.436;7.356;2023-05-07T00:39:00;3.40;;;3.20;;
1505;SDS011;744;51.436;7.356;2023-05-07T00:41:29;4.07;;;3.67;;
1505;SDS011;744;51.436;7.356;2023-05-07T00:43:59;3.93;;;3.43;;
1505;SDS011;744;51.436;7.356;2023-05-07T00:46:26;3.50;;;3.20;;
1505;SDS011;744;51.436;7.356;2023-05-07T00:48:53;4.80;;;3.23;;
1505;SDS011;744;51.436;7.356;2023-05-07T00:51:21;5.53;;;4.10;;
1505;SDS011;744;51.436;7.356;2023-05-07T00:53:48;4.67;;;4.00;;
1505;SDS011;744;51.436;7.356;2023-05-07T00:56:15;5.33;;;3.70;;
1505;SDS011;744;51.436;7.356;2023-05-07T00:58:42;3.00;;;2.80;;
1505;SDS011;744;51.436;7.356;2023-05-07T01:01:09;5.13;;;3.70;;
1505;SDS011;744;51.436;7.356;2023-05-07T01:03:36;4.73;;;3.67;;
1505;SDS011;744;51.436;7.356;2023-05-07T01:06:04;4.30;;;3.40;;
1505;SDS011;744;51.436;7.356;2023-05-07T01:08:32;4.10;;;3.70;;
1505;SDS011;744;51.436;7.356;2023-05-07T01:11:01;3.70;;;3.10;;
1505;SDS011;744;51.436;7.356;2023-05-07T01:13:28;4.17;;;3.80;;
1505;SDS011;744;51.436;7.356;2023-05-07T01:15:55;4.83;;;4.33;;
1505;SDS011;744;51.436;7.356;2023-05-07T01:18:22;5.87;;;4.37;;
1505;SDS011;744;51.436;7.356;2023-05-07T01:20:49;4.10;;;3.80;;
1505;SDS011;744;51.436;7.356;2023-05-07T01:23:16;7.87;;;4.10;;
1505;SDS011;744;51.436;7.356;2023-05-07T01:25:50;4.83;;;4.23;;
1505;SDS011;744;51.436;7.356;2023-05-07T01:28:21;5.20;;;4.73;;
1505;SDS011;744;51.436;7.356;2023-05-07T01:30:50;5.83;;;4.67;;
1505;SDS011;744;51.436;7.356;2023-05-07T01:33:25;6.07;;;5.47;;
1505;SDS011;744;51.436;7.356;2023-05-07T01:35:55;5.43;;;4.80;;
1505;SDS011;744;51.436;7.356;2023-05-07T01:38:23;4.13;;;3.73;;
1505;SDS011;744;51.436;7.356;2023-05-07T01:40:50;3.83;;;3.53;;
1505;SDS011;744;51.436;7.356;2023-05-07T01:43:17;4.30;;;3.90;;
1505;SDS011;744;51.436;7.356;2023-05-07T01:45:45;3.90;;;3.50;;
1505;SDS011;744;51.436;7.356;2023-05-07T01:48:13;4.23;;;3.83;;
1505;SDS011;744;51.436;7.356;2023-05-07T01:50:41;4.57;;;4.27;;
1505;SDS011;744;51.436;7.356;2023-05-07T01:53:09;4.67;;;4.10;;
1505;SDS011;744;51.436;7.356;2023-05-07T01:55:35;5.60;;;4.40;;
1505;SDS011;744;51.436;7.356;2023-05-07T01:58:06;6.50;;;4.50;;
1505;SDS011;744;51.436;7.356;2023-05-07T02:00:34;6.33;;;5.50;;
1505;SDS011;744;51.436;7.356;2023-05-07T02:03:00;7.77;;;5.10;;
1505;SDS011;744;51.436;7.356;2023-05-07T02:05:28;7.97;;;4.70;;
1505;SDS011;744;51.436;7.356;2023-05-07T02:07:54;4.60;;;4.13;;
1505;SDS011;744;51.436;7.356;2023-05-07T02:10:21;4.40;;;4.00;;
1505;SDS011;744;51.436;7.356;2023-05-07T02:12:48;6.63;;;3.80;;
1505;SDS011;744;51.436;7.356;2023-05-07T02:15:15;7.37;;;4.57;;
1505;SDS011;744;51.436;7.356;2023-05-07T02:17:58;5.83;;;4.47;;
1505;SDS011;744;51.436;7.356;2023-05-07T02:20:26;4.53;;;4.07;;
1505;SDS011;744;51.436;7.356;2023-05-07T02:22:53;4.27;;;3.97;;
1505;SDS011;744;51.436;7.356;2023-05-07T02:25:20;5.83;;;4.63;;
1505;SDS011;744;51.436;7.356;2023-05-07T02:27:47;5.00;;;4.20;;
1505;SDS011;744;51.436;7.356;2023-05-07T02:30:13;6.63;;;4.37;;
1505;SDS011;744;51.436;7.356;2023-05-07T02:32:41;4.50;;;3.83;;
1505;SDS011;744;51.436;7.356;2023-05-07T02:35:08;7.43;;;4.40;;
1505;SDS011;744;51.436;7.356;2023-05-07T02:37:34;3.83;;;3.53;;
1505;SDS011;744;51.436;7.356;2023-05-07T02:40:01;4.37;;;3.60;;
1505;SDS011;744;51.436;7.356;2023-05-07T02:42:29;4.40;;;3.60;;
1505;SDS011;744;51.436;7.356;2023-05-07T02:44:57;4.03;;;3.73;;
1505;SDS011;744;51.436;7.356;2023-05-07T02:47:24;5.23;;;3.00;;
1505;SDS011;744;51.436;7.356;2023-05-07T02:49:53;4.60;;;3.13;;
1505;SDS011;744;51.436;7.356;2023-05-07T02:52:21;3.93;;;3.60;;
1505;SDS011;744;51.436;7.356;2023-05-07T02:54:48;3.93;;;3.53;;
1505;SDS011;744;51.436;7.356;2023-05-07T02:57:15;4.00;;;3.57;;
1505;SDS011;744;51.436;7.356;2023-05-07T02:59:42;5.57;;;3.93;;
1505;SDS011;744;51.436;7.356;2023-05-07T03:02:09;4.20;;;3.80;;
1505;SDS011;744;51.436;7.356;2023-05-07T03:04:36;4.60;;;3.47;;
1505;SDS011;744;51.436;7.356;2023-05-07T03:07:03;3.33;;;3.03;;
1505;SDS011;744;51.436;7.356;2023-05-07T03:09:30;3.57;;;3.27;;
1505;SDS011;744;51.436;7.356;2023-05-07T03:11:56;3.47;;;3.17;;
1505;SDS011;744;51.436;7.356;2023-05-07T03:14:23;3.67;;;3.20;;
1505;SDS011;744;51.436;7.356;2023-05-07T03:16:50;4.60;;;4.20;;
1505;SDS011;744;51.436;7.356;2023-05-07T03:19:17;4.30;;;3.30;;
1505;SDS011;744;51.436;7.356;2023-05-07T03:21:44;6.10;;;3.20;;
1505;SDS011;744;51.436;7.356;2023-05-07T03:28:23;3.37;;;3.07;;
1505;SDS011;744;51.436;7.356;2023-05-07T03:30:50;3.30;;;3.10;;
1505;SDS011;744;51.436;7.356;2023-05-07T03:33:16;3.90;;;3.60;;
1505;SDS011;744;51.436;7.356;2023-05-07T03:35:43;4.70;;;3.83;;
1505;SDS011;744;51.436;7.356;2023-05-07T03:38:34;5.20;;;4.80;;
1505;SDS011;744;51.436;7.356;2023-05-07T03:41:00;4.60;;;4.20;;
1505;SDS011;744;51.436;7.356;2023-05-07T03:43:27;8.33;;;4.50;;
1505;SDS011;744;51.436;7.356;2023-05-07T03:45:54;5.53;;;5.00;;
1505;SDS011;744;51.436;7.356;2023-05-07T03:48:21;5.83;;;4.67;;
1505;SDS011;744;51.436;7.356;2023-05-07T03:50:48;6.13;;;4.57;;
1505;SDS011;744;51.436;7.356;2023-05-07T03:53:14;5.77;;;4.40;;
1505;SDS011;744;51.436;7.356;2023-05-07T03:55:41;5.90;;;5.23;;
1505;SDS011;744;51.436;7.356;2023-05-07T03:58:08;4.00;;;3.70;;
1505;SDS011;744;51.436;7.356;2023-05-07T04:00:35;6.40;;;5.80;;
1505;SDS011;744;51.436;7.356;2023-05-07T04:03:04;6.90;;;6.20;;
1505;SDS011;744;51.436;7.356;2023-05-07T04:05:31;7.07;;;6.47;;
1505;SDS011;744;51.436;7.356;2023-05-07T04:07:58;8.13;;;7.33;;
1505;SDS011;744;51.436;7.356;2023-05-07T04:10:25;6.87;;;6.23;;
1505;SDS011;744;51.436;7.356;2023-05-07T04:12:54;7.50;;;6.80;;
1505;SDS011;744;51.436;7.356;2023-05-07T04:15:21;8.03;;;6.67;;
1505;SDS011;744;51.436;7.356;2023-05-07T04:17:47;11.83;;;8.10;;
1505;SDS011;744;51.436;7.356;2023-05-07T04:20:15;8.53;;;7.57;;
1505;SDS011;744;51.436;7.356;2023-05-07T04:22:43;9.43;;;8.10;;
1505;SDS011;744;51.436;7.356;2023-05-07T04:25:09;8.70;;;7.90;;
1505;SDS011;744;51.436;7.356;2023-05-07T04:27:36;8.13;;;7.47;;
1505;SDS011;744;51.436;7.356;2023-05-07T04:30:04;8.93;;;8.13;;
1505;SDS011;744;51.436;7.356;2023-05-07T04:32:31;7.00;;;6.50;;
1505;SDS011;744;51.436;7.356;2023-05-07T04:34:58;7.80;;;7.20;;
1505;SDS011;744;51.436;7.356;2023-05-07T04:37:25;7.30;;;6.73;;
1505;SDS011;744;51.436;7.356;2023-05-07T04:39:52;8.37;;;6.70;;
1505;SDS011;744;51.436;7.356;2023-05-07T04:42:19;9.17;;;7.30;;
1505;SDS011;744;51.436;7.356;2023-05-07T04:44:46;7.67;;;6.93;;
1505;SDS011;744;51.436;7.356;2023-05-07T04:47:13;7.40;;;6.80;;
1505;SDS011;744;51.436;7.356;2023-05-07T04:49:39;7.40;;;6.80;;
1505;SDS011;744;51.436;7.356;2023-05-07T04:52:06;7.67;;;6.70;;
1505;SDS011;744;51.436;7.356;2023-05-07T04:54:33;7.50;;;5.80;;
1505;SDS011;744;51.436;7.356;2023-05-07T04:57:00;7.43;;;6.33;;
1505;SDS011;744;51.436;7.356;2023-05-07T04:59:27;5.60;;;5.13;;
1505;SDS011;744;51.436;7.356;2023-05-07T05:01:53;7.20;;;6.60;;
1505;SDS011;744;51.436;7.356;2023-05-07T05:04:22;7.97;;;5.80;;
1505;SDS011;744;51.436;7.356;2023-05-07T05:06:49;6.37;;;5.90;;
1505;SDS011;744;51.436;7.356;2023-05-07T05:09:16;6.90;;;6.20;;
1505;SDS011;744;51.436;7.356;2023-05-07T05:11:43;8.27;;;6.33;;
1505;SDS011;744;51.436;7.356;2023-05-07T05:14:10;6.77;;;5.80;;
1505;SDS011;744;51.436;7.356;2023-05-07T05:16:36;5.70;;;4.77;;
1505;SDS011;744;51.436;7.356;2023-05-07T05:19:03;4.67;;;4.20;;
1505;SDS011;744;51.436;7.356;2023-05-07T05:21:31;4.50;;;4.13;;
1505;SDS011;744;51.436;7.356;2023-05-07T05:23:58;3.50;;;3.20;;
1505;SDS011;744;51.436;7.356;2023-05-07T05:26:25;4.27;;;3.87;;
1505;SDS011;744;51.436;7.356;2023-05-07T05:28:52;4.43;;;3.90;;
1505;SDS011;744;51.436;7.356;2023-05-07T05:31:18;3.23;;;2.93;;
1505;SDS011;744;51.436;7.356;2023-05-07T05:33:45;4.70;;;3.60;;
1505;SDS011;744;51.436;7.356;2023-05-07T05:36:12;4.20;;;3.30;;
1505;SDS011;744;51.436;7.356;2023-05-07T05:38:39;4.23;;;3.93;;
1505;SDS011;744;51.436;7.356;2023-05-07T05:41:06;3.33;;;3.03;;
1505;SDS011;744;51.436;7.356;2023-05-07T05:43:33;3.27;;;2.97;;
1505;SDS011;744;51.436;7.356;2023-05-07T05:46:00;4.87;;;4.40;;
1505;SDS011;744;51.436;7.356;2023-05-07T05:48:28;4.73;;;4.33;;
1505;SDS011;744;51.436;7.356;2023-05-07T05:50:55;5.03;;;4.63;;
1505;SDS011;744;51.436;7.356;2023-05-07T05:53:22;5.90;;;5.30;;
1505;SDS011;744;51.436;7.356;2023-05-07T05:55:49;7.40;;;4.67;;
1505;SDS011;744;51.436;7.356;2023-05-07T05:58:16;4.73;;;4.17;;
1505;SDS011;744;51.436;7.356;2023-05-07T06:00:44;4.30;;;3.90;;
1505;SDS011;744;51.436;7.356;2023-05-07T06:03:11;5.77;;;5.17;;
1505;SDS011;744;51.436;7.356;2023-05-07T06:05:39;8.30;;;4.83;;
1505;SDS011;744;51.436;7.356;2023-05-07T06:08:06;6.03;;;5.07;;
1505;SDS011;744;51.436;7.356;2023-05-07T06:10:33;5.33;;;4.73;;
1505;SDS011;744;51.436;7.356;2023-05-07T06:13:01;5.20;;;4.40;;
1505;SDS011;744;51.436;7.356;2023-05-07T06:15:28;4.37;;;3.93;;
1505;SDS011;744;51.436;7.356;2023-05-07T06:17:55;5.50;;;4.93;;
1505;SDS011;744;51.436;7.356;2023-05-07T06:20:23;5.10;;;4.37;;
1505;SDS011;744;51.436;7.356;2023-05-07T06:22:50;4.50;;;4.10;;
1505;SDS011;744;51.436;7.356;2023-05-07T06:25:17;4.43;;;3.80;;
1505;SDS011;744;51.436;7.356;2023-05-07T06:27:44;4.13;;;3.83;;
1505;SDS011;744;51.436;7.356;2023-05-07T06:30:11;5.67;;;4.77;;
1505;SDS011;744;51.436;7.356;2023-05-07T06:32:40;4.50;;;4.10;;
1505;SDS011;744;51.436;7.356;2023-05-07T06:35:07;4.97;;;4.20;;
1505;SDS011;744;51.436;7.356;2023-05-07T06:37:34;3.63;;;3.30;;
1505;SDS011;744;51.436;7.356;2023-05-07T06:40:01;4.93;;;3.63;;
1505;SDS011;744;51.436;7.356;2023-05-07T06:42:28;4.37;;;3.97;;
1505;SDS011;744;51.436;7.356;2023-05-07T06:44:55;4.47;;;3.33;;
1505;SDS011;744;51.436;7.356;2023-05-07T06:47:22;3.37;;;3.10;;
1505;SDS011;744;51.436;7.356;2023-05-07T06:49:49;3.97;;;3.07;;
1505;SDS011;744;51.436;7.356;2023-05-07T06:52:15;3.27;;;3.07;;
1505;SDS011;744;51.436;7.356;2023-05-07T06:54:42;2.97;;;2.60;;
1505;SDS011;744;51.436;7.356;2023-05-07T06:57:09;4.50;;;3.00;;
1505;SDS011;744;51.436;7.356;2023-05-07T06:59:36;3.43;;;3.13;;
1505;SDS011;744;51.436;7.356;2023-05-07T07:02:03;4.37;;;3.00;;
1505;SDS011;744;51.436;7.356;2023-05-07T07:04:29;2.90;;;2.70;;
1505;SDS011;744;51.436;7.356;2023-05-07T07:06:56;2.73;;;2.53;;
1505;SDS011;744;51.436;7.356;2023-05-07T07:09:23;4.73;;;3.20;;
1505;SDS011;744;51.436;7.356;2023-05-07T07:11:50;3.13;;;2.83;;
1505;SDS011;744;51.436;7.356;2023-05-07T07:14:17;3.43;;;2.93;;
1505;SDS011;744;51.436;7.356;2023-05-07T07:16:43;4.60;;;2.80;;
1505;SDS011;744;51.436;7.356;2023-05-07T07:19:10;3.43;;;2.50;;
1505;SDS011;744;51.436;7.356;2023-05-07T07:21:37;5.83;;;2.57;;
1505;SDS011;744;51.436;7.356;2023-05-07T07:24:04;2.67;;;2.47;;
1505;SDS011;744;51.436;7.356;2023-05-07T07:26:31;2.57;;;2.37;;
1505;SDS011;744;51.436;7.356;2023-05-07T07:28:58;3.37;;;2.63;;
1505;SDS011;744;51.436;7.356;2023-05-07T07:31:24;3.00;;;2.40;;
1505;SDS011;744;51.436;7.356;2023-05-07T07:33:51;3.30;;;2.60;;
1505;SDS011;744;51.436;7.356;2023-05-07T07:36:18;3.20;;;2.03;;
1505;SDS011;744;51.436;7.356;2023-05-07T07:38:47;1.90;;;1.63;;
1505;SDS011;744;51.436;7.356;2023-05-07T07:41:13;2.83;;;2.37;;
1505;SDS011;744;51.436;7.356;2023-05-07T07:43:40;3.33;;;2.37;;
1505;SDS011;744;51.436;7.356;2023-05-07T07:46:07;3.07;;;2.60;;
1505;SDS011;744;51.436;7.356;2023-05-07T07:48:34;3.13;;;2.90;;
1505;SDS011;744;51.436;7.356;2023-05-07T07:51:00;3.33;;;2.40;;
1505;SDS011;744;51.436;7.356;2023-05-07T07:53:27;2.77;;;2.47;;
1505;SDS011;744;51.436;7.356;2023-05-07T07:55:54;2.73;;;2.30;;
1505;SDS011;744;51.436;7.356;2023-05-07T07:58:24;3.27;;;2.93;;
1505;SDS011;744;51.436;7.356;2023-05-07T08:00:52;2.53;;;1.80;;
1505;SDS011;744;51.436;7.356;2023-05-07T08:03:18;3.90;;;2.60;;
1505;SDS011;744;51.436;7.356;2023-05-07T08:05:46;3.20;;;2.43;;
1505;SDS011;744;51.436;7.356;2023-05-07T08:08:12;6.33;;;2.70;;
1505;SDS011;744;51.436;7.356;2023-05-07T08:10:39;2.50;;;2.30;;
1505;SDS011;744;51.436;7.356;2023-05-07T08:13:06;1.93;;;1.83;;
1505;SDS011;744;51.436;7.356;2023-05-07T08:15:33;4.07;;;2.97;;
1505;SDS011;744;51.436;7.356;2023-05-07T08:18:02;2.50;;;2.30;;
1505;SDS011;744;51.436;7.356;2023-05-07T08:20:29;3.50;;;3.10;;
1505;SDS011;744;51.436;7.356;2023-05-07T08:22:56;4.70;;;2.40;;
1505;SDS011;744;51.436;7.356;2023-05-07T08:25:23;4.80;;;2.03;;
1505;SDS011;744;51.436;7.356;2023-05-07T08:27:50;2.60;;;2.40;;
1505;SDS011;744;51.436;7.356;2023-05-07T08:30:16;3.93;;;2.67;;
1505;SDS011;744;51.436;7.356;2023-05-07T08:32:43;5.27;;;3.27;;
1505;SDS011;744;51.436;7.356;2023-05-07T08:35:10;10.10;;;2.50;;
1505;SDS011;744;51.436;7.356;2023-05-07T08:37:37;4.03;;;3.03;;
1505;SDS011;744;51.436;7.356;2023-05-07T08:40:04;2.80;;;2.50;;
1505;SDS011;744;51.436;7.356;2023-05-07T08:42:36;3.37;;;2.50;;
1505;SDS011;744;51.436;7.356;2023-05-07T08:45:08;5.33;;;2.80;;
1505;SDS011;744;51.436;7.356;2023-05-07T08:47:40;3.23;;;2.93;;
1505;SDS011;744;51.436;7.356;2023-05-07T08:50:11;3.40;;;2.50;;
1505;SDS011;744;51.436;7.356;2023-05-07T08:52:40;3.20;;;2.60;;
1505;SDS011;744;51.436;7.356;2023-05-07T08:55:08;3.70;;;2.90;;
1505;SDS011;744;51.436;7.356;2023-05-07T08:57:36;6.13;;;3.50;;
1505;SDS011;744;51.436;7.356;2023-05-07T09:00:05;4.60;;;3.00;;
1505;SDS011;744;51.436;7.356;2023-05-07T09:02:34;4.30;;;2.37;;
1505;SDS011;744;51.436;7.356;2023-05-07T09:05:02;3.73;;;3.00;;
1505;SDS011;744;51.436;7.356;2023-05-07T09:07:30;3.50;;;2.80;;
1505;SDS011;744;51.436;7.356;2023-05-07T09:09:57;3.53;;;3.17;;
1505;SDS011;744;51.436;7.356;2023-05-07T09:12:24;3.23;;;2.70;;
1505;SDS011;744;51.436;7.356;2023-05-07T09:14:51;3.40;;;3.20;;
1505;SDS011;744;51.436;7.356;2023-05-07T09:17:17;3.60;;;3.30;;
1505;SDS011;744;51.436;7.356;2023-05-07T09:19:45;3.37;;;3.07;;
1505;SDS011;744;51.436;7.356;2023-05-07T09:22:12;5.40;;;3.70;;
1505;SDS011;744;51.436;7.356;2023-05-07T09:24:39;3.20;;;2.90;;
1505;SDS011;744;51.436;7.356;2023-05-07T09:27:07;4.30;;;3.60;;
1505;SDS011;744;51.436;7.356;2023-05-07T09:29:36;3.77;;;2.80;;
1505;SDS011;744;51.436;7.356;2023-05-07T09:32:03;4.00;;;3.70;;
1505;SDS011;744;51.436;7.356;2023-05-07T09:34:32;3.63;;;3.33;;
1505;SDS011;744;51.436;7.356;2023-05-07T09:37:00;8.30;;;4.13;;
1505;SDS011;744;51.436;7.356;2023-05-07T09:39:46;3.27;;;3.07;;
1505;SDS011;744;51.436;7.356;2023-05-07T09:42:15;2.73;;;2.53;;
1505;SDS011;744;51.436;7.356;2023-05-07T09:44:45;2.93;;;2.70;;
1505;SDS011;744;51.436;7.356;2023-05-07T09:47:14;5.20;;;4.70;;
1505;SDS011;744;51.436;7.356;2023-05-07T09:49:47;4.27;;;2.90;;
1505;SDS011;744;51.436;7.356;2023-05-07T09:52:14;4.17;;;3.77;;
1505;SDS011;744;51.436;7.356;2023-05-07T09:54:43;5.20;;;4.70;;
1505;SDS011;744;51.436;7.356;2023-05-07T09:57:11;5.50;;;5.00;;
1505;SDS011;744;51.436;7.356;2023-05-07T09:59:38;5.10;;;4.60;;
1505;SDS011;744;51.436;7.356;2023-05-07T10:02:09;4.60;;;4.10;;
1505;SDS011;744;51.436;7.356;2023-05-07T10:04:37;6.00;;;5.40;;
1505;SDS011;744;51.436;7.356;2023-05-07T10:07:04;7.80;;;6.60;;
1505;SDS011;744;51.436;7.356;2023-05-07T10:09:31;7.77;;;6.97;;
1505;SDS011;744;51.436;7.356;2023-05-07T10:11:58;10.43;;;7.53;;
1505;SDS011;744;51.436;7.356;2023-05-07T10:14:25;6.87;;;6.37;;
1505;SDS011;744;51.436;7.356;2023-05-07T10:16:54;9.07;;;7.00;;
1505;SDS011;744;51.436;7.356;2023-05-07T10:19:21;11.80;;;7.43;;
1505;SDS011;744;51.436;7.356;2023-05-07T10:21:54;8.33;;;7.03;;
1505;SDS011;744;51.436;7.356;2023-05-07T10:24:27;7.67;;;6.97;;
1505;SDS011;744;51.436;7.356;2023-05-07T10:26:57;8.03;;;7.23;;
1505;SDS011;744;51.436;7.356;2023-05-07T10:34:48;6.77;;;6.27;;
1505;SDS011;744;51.436;7.356;2023-05-07T10:37:19;6.87;;;6.27;;
1505;SDS011;744;51.436;7.356;2023-05-07T10:39:46;4.93;;;4.53;;
1505;SDS011;744;51.436;7.356;2023-05-07T10:42:14;6.60;;;6.00;;
1505;SDS011;744;51.436;7.356;2023-05-07T10:44:41;5.20;;;4.80;;
1505;SDS011;744;51.436;7.356;2023-05-07T10:47:08;6.53;;;5.90;;
1505;SDS011;744;51.436;7.356;2023-05-07T10:49:37;6.27;;;5.10;;
1505;SDS011;744;51.436;7.356;2023-05-07T10:52:32;5.90;;;5.30;;
1505;SDS011;744;51.436;7.356;2023-05-07T10:57:45;5.50;;;5.10;;
1505;SDS011;744;51.436;7.356;2023-05-07T11:03:06;4.10;;;3.50;;
1505;SDS011;744;51.436;7.356;2023-05-07T11:05:34;5.27;;;4.77;;
1505;SDS011;744;51.436;7.356;2023-05-07T11:08:04;5.77;;;3.60;;
1505;SDS011;744;51.436;7.356;2023-05-07T11:13:18;8.70;;;5.67;;
1505;SDS011;744;51.436;7.356;2023-05-07T11:16:15;4.50;;;4.10;;
1505;SDS011;744;51.436;7.356;2023-05-07T11:18:50;5.00;;;4.17;;
1505;SDS011;744;51.436;7.356;2023-05-07T11:24:08;5.30;;;4.07;;
1505;SDS011;744;51.436;7.356;2023-05-07T11:26:49;3.60;;;3.30;;
1505;SDS011;744;51.436;7.356;2023-05-07T11:29:17;5.17;;;4.20;;
1505;SDS011;744;51.436;7.356;2023-05-07T11:31:48;6.80;;;5.13;;
1505;SDS011;744;51.436;7.356;2023-05-07T11:34:20;5.20;;;4.60;;
1505;SDS011;744;51.436;7.356;2023-05-07T11:36:48;4.50;;;4.20;;
1505;SDS011;744;51.436;7.356;2023-05-07T11:41:54;4.47;;;4.03;;
1505;SDS011;744;51.436;7.356;2023-05-07T11:44:21;6.27;;;4.97;;
1505;SDS011;744;51.436;7.356;2023-05-07T11:46:48;5.50;;;5.00;;
1505;SDS011;744;51.436;7.356;2023-05-07T11:49:15;5.70;;;5.30;;
1505;SDS011;744;51.436;7.356;2023-05-07T11:51:43;5.50;;;5.00;;
1505;SDS011;744;51.436;7.356;2023-05-07T11:54:11;7.03;;;4.80;;
1505;SDS011;744;51.436;7.356;2023-05-07T11:56:39;7.37;;;4.97;;
1505;SDS011;744;51.436;7.356;2023-05-07T11:59:06;3.90;;;3.60;;
1505;SDS011;744;51.436;7.356;2023-05-07T12:01:35;6.97;;;4.70;;
1505;SDS011;744;51.436;7.356;2023-05-07T12:04:03;4.13;;;3.83;;
1505;SDS011;744;51.436;7.356;2023-05-07T12:06:35;5.53;;;4.60;;
1505;SDS011;744;51.436;7.356;2023-05-07T12:09:04;6.07;;;5.47;;
1505;SDS011;744;51.436;7.356;2023-05-07T12:11:33;6.93;;;6.00;;
1505;SDS011;744;51.436;7.356;2023-05-07T12:14:00;6.37;;;5.80;;
1505;SDS011;744;51.436;7.356;2023-05-07T12:16:27;6.20;;;5.60;;
1505;SDS011;744;51.436;7.356;2023-05-07T12:18:54;9.03;;;6.80;;
1505;SDS011;744;51.436;7.356;2023-05-07T12:21:21;6.27;;;5.67;;
1505;SDS011;744;51.436;7.356;2023-05-07T12:23:50;8.20;;;7.40;;
1505;SDS011;744;51.436;7.356;2023-05-07T12:26:18;7.03;;;6.37;;
1505;SDS011;744;51.436;7.356;2023-05-07T12:28:47;8.23;;;6.40;;
1505;SDS011;744;51.436;7.356;2023-05-07T12:31:14;5.53;;;5.03;;
1505;SDS011;744;51.436;7.356;2023-05-07T12:33:45;5.10;;;4.70;;
1505;SDS011;744;51.436;7.356;2023-05-07T12:36:12;6.83;;;4.70;;
1505;SDS011;744;51.436;7.356;2023-05-07T12:38:39;5.50;;;4.90;;
1505;SDS011;744;51.436;7.356;2023-05-07T12:41:09;4.90;;;4.40;;
1505;SDS011;744;51.436;7.356;2023-05-07T12:43:37;5.80;;;5.30;;
1505;SDS011;744;51.436;7.356;2023-05-07T12:46:06;5.47;;;4.67;;
1505;SDS011;744;51.436;7.356;2023-05-07T12:48:35;6.10;;;5.60;;
1505;SDS011;744;51.436;7.356;2023-05-07T12:51:04;6.27;;;5.67;;
1505;SDS011;744;51.436;7.356;2023-05-07T12:53:32;5.90;;;5.33;;
1505;SDS011;744;51.436;7.356;2023-05-07T12:55:59;6.27;;;5.70;;
1505;SDS011;744;51.436;7.356;2023-05-07T12:58:29;6.27;;;5.70;;
1505;SDS011;744;51.436;7.356;2023-05-07T13:01:00;7.50;;;6.20;;
1505;SDS011;744;51.436;7.356;2023-05-07T13:03:30;10.57;;;8.00;;
1505;SDS011;744;51.436;7.356;2023-05-07T13:06:06;6.57;;;5.97;;
1505;SDS011;744;51.436;7.356;2023-05-07T13:08:40;6.67;;;6.07;;
1505;SDS011;744;51.436;7.356;2023-05-07T13:11:09;6.70;;;5.73;;
1505;SDS011;744;51.436;7.356;2023-05-07T13:13:37;7.67;;;5.90;;
1505;SDS011;744;51.436;7.356;2023-05-07T13:16:07;5.90;;;5.40;;
1505;SDS011;744;51.436;7.356;2023-05-07T13:18:34;5.60;;;5.10;;
1505;SDS011;744;51.436;7.356;2023-05-07T13:21:02;6.00;;;5.50;;
1505;SDS011;744;51.436;7.356;2023-05-07T13:23:29;7.00;;;6.40;;
1505;SDS011;744;51.436;7.356;2023-05-07T13:25:56;5.97;;;5.47;;
1505;SDS011;744;51.436;7.356;2023-05-07T13:28:26;7.83;;;6.30;;
1505;SDS011;744;51.436;7.356;2023-05-07T13:30:53;7.30;;;6.60;;
1505;SDS011;744;51.436;7.356;2023-05-07T13:33:21;7.03;;;6.33;;
1505;SDS011;744;51.436;7.356;2023-05-07T13:35:48;8.37;;;6.30;;
1505;SDS011;744;51.436;7.356;2023-05-07T13:38:14;7.10;;;6.50;;
1505;SDS011;744;51.436;7.356;2023-05-07T13:40:42;6.10;;;5.43;;
1505;SDS011;744;51.436;7.356;2023-05-07T13:43:09;7.43;;;6.40;;
1505;SDS011;744;51.436;7.356;2023-05-07T13:45:36;7.73;;;6.93;;
1505;SDS011;744;51.436;7.356;2023-05-07T13:48:03;7.07;;;5.93;;
1505;SDS011;744;51.436;7.356;2023-05-07T13:50:31;6.97;;;6.33;;
1505;SDS011;744;51.436;7.356;2023-05-07T13:52:57;6.93;;;6.33;;
1505;SDS011;744;51.436;7.356;2023-05-07T13:55:24;7.80;;;7.10;;
1505;SDS011;744;51.436;7.356;2023-05-07T13:58:01;7.37;;;6.67;;
1505;SDS011;744;51.436;7.356;2023-05-07T14:00:32;6.73;;;5.10;;
1505;SDS011;744;51.436;7.356;2023-05-07T14:02:59;6.13;;;5.10;;
1505;SDS011;744;51.436;7.356;2023-05-07T14:05:26;7.27;;;5.93;;
1505;SDS011;744;51.436;7.356;2023-05-07T14:07:54;9.17;;;7.70;;
1505;SDS011;744;51.436;7.356;2023-05-07T14:10:23;6.87;;;6.20;;
1505;SDS011;744;51.436;7.356;2023-05-07T14:12:50;6.60;;;6.00;;
1505;SDS011;744;51.436;7.356;2023-05-07T14:15:19;6.63;;;5.97;;
1505;SDS011;744;51.436;7.356;2023-05-07T14:17:45;6.27;;;5.73;;
1505;SDS011;744;51.436;7.356;2023-05-07T14:20:13;7.33;;;6.73;;
1505;SDS011;744;51.436;7.356;2023-05-07T14:22:40;6.90;;;6.23;;
1505;SDS011;744;51.436;7.356;2023-05-07T14:25:07;7.80;;;7.10;;
1505;SDS011;744;51.436;7.356;2023-05-07T14:27:35;10.40;;;6.93;;
1505;SDS011;744;51.436;7.356;2023-05-07T14:30:02;8.10;;;7.40;;
1505;SDS011;744;51.436;7.356;2023-05-07T14:32:30;7.50;;;6.80;;
1505;SDS011;744;51.436;7.356;2023-05-07T14:34:56;8.67;;;7.90;;
1505;SDS011;744;51.436;7.356;2023-05-07T14:37:23;8.20;;;7.40;;
1505;SDS011;744;51.436;7.356;2023-05-07T14:39:50;10.37;;;9.30;;
1505;SDS011;744;51.436;7.356;2023-05-07T14:42:17;8.63;;;7.80;;
1505;SDS011;744;51.436;7.356;2023-05-07T14:44:44;10.27;;;8.53;;
1505;SDS011;744;51.436;7.356;2023-05-07T14:47:12;8.93;;;8.13;;
1505;SDS011;744;51.436;7.356;2023-05-07T14:49:39;12.47;;;9.00;;
1505;SDS011;744;51.436;7.356;2023-05-07T14:52:07;9.13;;;8.33;;
1505;SDS011;744;51.436;7.356;2023-05-07T14:54:36;9.17;;;8.27;;
1505;SDS011;744;51.436;7.356;2023-05-07T14:57:04;7.77;;;7.07;;
1505;SDS011;744;51.436;7.356;2023-05-07T14:59:32;8.90;;;8.20;;
1505;SDS011;744;51.436;7.356;2023-05-07T15:01:59;6.97;;;6.37;;
1505;SDS011;744;51.436;7.356;2023-05-07T15:04:29;5.63;;;5.17;;
1505;SDS011;744;51.436;7.356;2023-05-07T15:06:56;4.40;;;4.10;;
1505;SDS011;744;51.436;7.356;2023-05-07T15:09:23;5.73;;;4.30;;
1505;SDS011;744;51.436;7.356;2023-05-07T15:11:50;4.67;;;4.20;;
1505;SDS011;744;51.436;7.356;2023-05-07T15:14:16;5.93;;;5.23;;
1505;SDS011;744;51.436;7.356;2023-05-07T15:16:43;5.77;;;4.50;;
1505;SDS011;744;51.436;7.356;2023-05-07T15:19:11;8.10;;;5.60;;
1505;SDS011;744;51.436;7.356;2023-05-07T15:21:41;4.40;;;4.00;;
1505;SDS011;744;51.436;7.356;2023-05-07T15:24:08;5.10;;;4.07;;
1505;SDS011;744;51.436;7.356;2023-05-07T15:26:35;4.30;;;4.00;;
1505;SDS011;744;51.436;7.356;2023-05-07T15:29:02;7.57;;;4.90;;
1505;SDS011;744;51.436;7.356;2023-05-07T15:31:34;4.50;;;3.70;;
1505;SDS011;744;51.436;7.356;2023-05-07T15:34:01;6.00;;;4.10;;
1505;SDS011;744;51.436;7.356;2023-05-07T15:36:28;4.37;;;4.07;;
1505;SDS011;744;51.436;7.356;2023-05-07T15:38:54;4.30;;;3.90;;
1505;SDS011;744;51.436;7.356;2023-05-07T15:41:21;4.73;;;4.33;;
1505;SDS011;744;51.436;7.356;2023-05-07T15:43:50;4.07;;;3.77;;
1505;SDS011;744;51.436;7.356;2023-05-07T15:46:19;4.50;;;4.07;;
1505;SDS011;744;51.436;7.356;2023-05-07T15:48:46;4.03;;;3.73;;
1505;SDS011;744;51.436;7.356;2023-05-07T15:51:13;5.10;;;4.00;;
1505;SDS011;744;51.436;7.356;2023-05-07T15:53:41;4.10;;;3.70;;
1505;SDS011;744;51.436;7.356;2023-05-07T15:56:08;4.10;;;3.80;;
1505;SDS011;744;51.436;7.356;2023-05-07T15:58:35;4.47;;;3.83;;